x

Buoy A01 - Mass. Bay/stellwagen (44029) Wave Buoy

2:04pm - Thu 25th May 2017 All times are EDT. -4 hours from GMT.

  • Sig Wave height 5.2ft
  • Peak Period 5s
  • Wind
    22mph, 29mph gusts
  • Sea Temp 52°f
  • 空気 Temp 51°f
  • Sea Pressure 1007.5mb
  • Buoy A01 - Mass. Bay/stellwagen
  • Buoy A01 - Mass. Bay/stellwagen

More Historic Weather Station data

Upgrade to MSW Pro to gain access to the past 30 days of data for over 8000 Wavebouys and Weather Stations around the globe.

Join Pro

Comparision Forecast

View Surf forecast
   
Thu 05/25 2:04pm 5ft 5s 22 29 mph 1007.5mb 52f 51f
1:04pm 4.5ft 4s 22 25 mph 1008.2mb 52f 52f
12:04pm 3.5ft 4s 22 27 mph 1008.8mb 52f 53f
11:04am 3ft 4s 20 25 mph 1009.6mb 52f 53f
10:04am  -   -  16 20 mph 1010.8mb 53f 53f
9:04am 3.5ft 9s 16 18 mph 1011mb 53f 53f
8:04am 2.5ft 7s 13 18 mph 1011.3mb 53f 54f
7:04am 2.5ft 7s 13 16 mph 1011.6mb 53f 54f
6:04am 2.5ft 7s 13 16 mph 1011.2mb 53f 54f
5:04am 2ft 7s 13 13 mph 1011.3mb 54f 54f
4:04am 1.6ft 7s 11 13 mph 1010.8mb 54f 54f
3:04am 1.3ft 8s 9 9 mph 1011mb 55f 54f
2:04am 1.6ft 8s 9 9 mph 1011.1mb 55f 55f
1:04am  -   -  4 4 mph 1011.4mb 55f 55f
12:04am 1.6ft 8s 2 4 mph 1010.9mb 55f 54f
Wed 05/24 11:04pm 1.6ft 8s 2 2 mph 1010.6mb 55f 55f
10:04pm 1.6ft 7s 4 4 mph 1011.4mb 55f 55f
9:04pm 1.6ft 7s 4 7 mph 1010.4mb 55f 55f
8:04pm 1.6ft 7s 7 7 mph 1009.1mb 55f 55f
7:04pm 2ft 7s 7 9 mph 1009.5mb 55f 56f
6:04pm 2ft 7s 4 4 mph 1010mb 55f 57f
5:04pm 1.6ft 7s 4 7 mph 1009.4mb 55f 56f
4:04pm  -   -  7 9 mph 1008.1mb 55f 56f
3:04pm 1.3ft 7s 7 7 mph 1008.7mb 55f 56f
2:04pm 1.3ft 8s 4 4 mph 1009mb 55f 56f
1:04pm 1.3ft 6s 7 7 mph 1008.6mb 55f 56f
12:04pm 1.3ft 7s 7 7 mph 1008.3mb 54f 56f
11:04am 1.3ft 6s 4 7 mph 1008.4mb 55f 56f
10:04am 1.3ft 6s 2 2 mph 1007.8mb 54f 56f
9:04am 1ft 6s 4 4 mph 1007.7mb 54f 55f
8:04am 1ft 6s 4 4 mph 1007.8mb 54f 54f
7:04am 0.7ft  -  2 2 mph 1008mb 53f 54f
6:04am 1ft 5s 7 7 mph 1007.8mb 53f 54f
5:04am 0.7ft  -   -  2 mph 1007.7mb 53f 54f
4:04am 0.7ft  -  4 7 mph 1008mb 53f 54f
3:04am 0.7ft  -  4 7 mph 1008.2mb 53f 54f
2:04am 0.7ft  -  2 4 mph 1008.5mb 53f 54f
1:04am 1ft 6s 9 9 mph 1008.8mb 53f 55f
12:04am 1ft 6s 4 4 mph 1008.8mb 54f 55f
Tue 05/23 11:04pm 1.3ft 5s 9 11 mph 1009mb 54f 55f
10:04pm 1.6ft 5s 11 13 mph 1009.1mb 54f 55f
9:04pm 1.6ft 6s 11 11 mph 1009.3mb 54f 55f
8:04pm 1.6ft 6s 11 13 mph 1009mb 54f 54f
7:04pm  -   -  7 9 mph 1009.3mb 55f 55f
6:04pm 1.6ft 6s 7 7 mph 1009.1mb 55f 55f
5:04pm  -   -  7 7 mph 1009.4mb 55f 55f
4:04pm 1ft 6s 7 7 mph 1010mb 55f 55f
3:04pm 1ft 6s 7 9 mph 1010.2mb 55f 55f
2:04pm 1.3ft 7s 7 7 mph 1010.5mb 55f 55f
1:04pm 1.6ft 6s 9 9 mph 1011.4mb 54f 54f
12:04pm 1.6ft 6s 7 9 mph 1011.9mb 54f 53f
11:04am 2ft 7s 9 11 mph 1012.3mb 54f 52f
10:04am 2.5ft 6s 9 11 mph 1012.6mb 53f 52f
9:04am 1.6ft 6s 11 13 mph 1012.9mb 53f 52f
8:04am 1.3ft 6s 7 7 mph 1012.7mb 53f 53f
7:04am 1.3ft 5s 9 13 mph 1012.9mb 53f 52f
6:04am 1.3ft 5s 7 9 mph 1012.5mb 53f 53f
5:04am 1.3ft 5s 7 9 mph 1012.3mb 53f 52f
4:04am 1.3ft 4s 9 9 mph 1012.4mb 53f 52f
3:04am 2ft 4s 9 11 mph 1012.6mb 53f 52f
2:04am 3ft 4s 9 11 mph 1012.8mb 53f 53f
1:04am 2.5ft 5s 7 9 mph 1013.6mb 53f 53f
12:04am 2.5ft 4s 2 2 mph 1014.2mb 53f 53f
Mon 05/22 11:04pm 3ft 4s 7 9 mph 1014.5mb 53f 53f
10:04pm 3ft 4s 11 13 mph 1015.1mb 53f 53f
9:04pm 3ft 4s 13 16 mph 1015.7mb 54f 53f
8:04pm 3.5ft 4s 11 13 mph 1016mb 54f 52f
7:04pm 3ft 4s 16 18 mph 1016.8mb 54f 52f
6:04pm 2.5ft 4s 16 20 mph 1017.2mb 54f 53f
5:04pm 2ft 3s 16 18 mph 1017.9mb 54f 53f
4:04pm 1.6ft 3s 11 16 mph 1019mb 54f 52f
3:04pm 1.6ft 3s 16 18 mph 1019.7mb 54f 50f
2:04pm 1ft 3s 16 20 mph 1020.5mb 54f 51f
1:04pm 2ft 3s 9 11 mph 1021.2mb 54f 52f
12:04pm 2ft 3s 16 20 mph 1021.8mb 54f 52f
11:04am 1.6ft 3s 11 11 mph 1022mb 54f 53f
10:04am 1ft 3s 11 13 mph 1022.1mb 53f 53f
9:04am 0.3ft  -  11 16 mph 1022.3mb 53f 53f
8:04am 0.7ft  -  11 13 mph 1022.8mb 53f 54f
7:04am 0.3ft  -  9 11 mph 1022.7mb 54f 54f
6:04am 0.7ft  -  9 11 mph 1022.5mb 54f 54f
5:04am 1ft 3s 7 9 mph 1022.5mb 54f 55f
4:04am 1ft 3s 11 11 mph 1022.5mb 54f 55f
3:04am 1.6ft 3s 11 11 mph 1022.3mb 55f 55f
2:04am 2ft 3s 9 11 mph 1023.2mb 54f 55f
1:04am 2ft 3s 11 13 mph 1023.5mb 54f 55f
12:04am 2.5ft 3s 13 16 mph 1023.5mb 54f 55f
Sun 05/21 11:04pm 1.6ft 3s 16 18 mph 1023.7mb 54f 56f
10:04pm 1.6ft 3s 13 16 mph 1024.5mb 55f 56f
9:04pm 1ft 3s 13 16 mph 1024.7mb 55f 56f